Time;durP1;ratioP1;P1;durP2;ratioP2;P2;SDS_P1;SDS_P2;PMS_P1;PMS_P2;Temp;Humidity;BMP_temperature;BMP_pressure;BME280_temperature;BME280_humidity;BME280_pressure;Samples;Min_cycle;Max_cycle;Signal;HPM_P1;HPM_P2
2022/07/03 00:04:41;;;;;;;5.25;3.15;;;;;;;;;;10309485;28;20027;-56
2022/07/03 00:09:42;;;;;;;7.53;3.50;;;;;;;;;;10317666;28;20479;-55
2022/07/03 00:14:43;;;;;;;6.45;3.35;;;;;;;;;;10312078;28;20040;-55
2022/07/03 00:19:43;;;;;;;9.02;3.90;;;;;;;;;;10318916;28;20034;-55
2022/07/03 00:25:03;;;;;;;9.13;3.95;;;;;;;;;;10317760;28;20039;-55
2022/07/03 00:30:04;;;;;;;6.05;2.90;;;;;;;;;;10318163;28;20034;-55
2022/07/03 00:35:07;;;;;;;4.38;2.83;;;;;;;;;;10316128;28;20042;-55
2022/07/03 00:40:08;;;;;;;4.90;3.13;;;;;;;;;;10323355;28;20089;-54
2022/07/03 00:45:10;;;;;;;8.95;2.95;;;;;;;;;;10306708;28;20107;-54
2022/07/03 00:50:11;;;;;;;4.95;2.97;;;;;;;;;;10325515;28;20030;-54
2022/07/03 00:55:17;;;;;;;6.38;3.25;;;;;;;;;;10320688;28;20030;-56
2022/07/03 01:00:18;;;;;;;5.57;3.42;;;;;;;;;;10320685;28;20041;-55
2022/07/03 01:05:42;;;;;;;6.50;2.90;;;;;;;;;;10320944;28;20458;-55
2022/07/03 01:10:58;;;;;;;3.25;2.60;;;;;;;;;;10305644;28;20038;-55
2022/07/03 01:16:26;;;;;;;6.85;2.80;;;;;;;;;;10301580;28;20118;-54
2022/07/03 01:22:04;;;;;;;6.28;3.38;;;;;;;;;;10316106;28;20132;-56
2022/07/03 01:27:12;;;;;;;4.75;2.80;;;;;;;;;;10317291;28;20038;-55
2022/07/03 01:32:14;;;;;;;5.55;2.65;;;;;;;;;;10295749;28;20117;-55
2022/07/03 01:37:19;;;;;;;5.28;2.53;;;;;;;;;;10299058;28;20034;-54
2022/07/03 01:42:22;;;;;;;5.60;3.20;;;;;;;;;;10311548;28;20402;-53
2022/07/03 01:47:25;;;;;;;5.13;2.70;;;;;;;;;;10301412;28;20061;-55
2022/07/03 01:52:29;;;;;;;4.18;2.67;;;;;;;;;;10290439;28;20130;-54
2022/07/03 01:57:45;;;;;;;6.95;3.10;;;;;;;;;;10306957;28;20034;-55
2022/07/03 02:03:02;;;;;;;5.10;2.90;;;;;;;;;;10324021;28;20257;-52
2022/07/03 02:08:12;;;;;;;3.78;2.47;;;;;;;;;;10305361;28;20033;-54
2022/07/03 02:13:39;;;;;;;3.15;2.60;;;;;;;;;;10308184;28;20061;-55
2022/07/03 02:18:41;;;;;;;5.87;3.50;;;;;;;;;;10314052;28;20030;-54
2022/07/03 02:24:06;;;;;;;4.13;2.50;;;;;;;;;;10305581;28;20057;-54
2022/07/03 02:29:14;;;;;;;3.40;2.22;;;;;;;;;;10308346;28;20374;-55
2022/07/03 02:34:23;;;;;;;4.25;2.38;;;;;;;;;;10316540;28;20471;-53
2022/07/03 02:39:44;;;;;;;3.70;2.42;;;;;;;;;;10316805;28;20274;-55
2022/07/03 02:44:46;;;;;;;3.55;2.60;;;;;;;;;;10312175;28;20474;-56
2022/07/03 02:50:08;;;;;;;5.50;2.30;;;;;;;;;;10323505;28;20023;-55
2022/07/03 02:55:37;;;;;;;4.63;2.13;;;;;;;;;;10325251;28;20486;-53
2022/07/03 03:00:42;;;;;;;2.97;2.28;;;;;;;;;;10312171;28;20026;-54
2022/07/03 03:05:48;;;;;;;6.05;2.53;;;;;;;;;;10307164;28;20039;-55
2022/07/03 03:10:51;;;;;;;3.78;2.38;;;;;;;;;;10311958;28;20018;-54
2022/07/03 03:16:06;;;;;;;3.08;2.38;;;;;;;;;;10317463;28;20029;-55
2022/07/03 03:21:13;;;;;;;5.78;2.47;;;;;;;;;;10303907;28;20039;-56
2022/07/03 03:26:24;;;;;;;5.73;2.60;;;;;;;;;;10320708;28;20050;-54
2022/07/03 03:31:26;;;;;;;5.15;2.30;;;;;;;;;;10316974;28;20490;-54
2022/07/03 03:36:28;;;;;;;3.47;2.03;;;;;;;;;;10319001;28;20470;-54
2022/07/03 03:41:29;;;;;;;4.45;2.20;;;;;;;;;;10322364;28;20077;-54
2022/07/03 03:46:30;;;;;;;3.70;2.20;;;;;;;;;;10320431;28;20030;-55
2022/07/03 03:51:30;;;;;;;2.70;2.08;;;;;;;;;;10328760;28;20022;-54
2022/07/03 03:56:31;;;;;;;2.83;2.10;;;;;;;;;;10311450;28;20412;-54
2022/07/03 04:01:32;;;;;;;3.67;1.92;;;;;;;;;;10322894;28;20046;-54
2022/07/03 04:06:32;;;;;;;2.83;2.13;;;;;;;;;;10324263;28;20117;-54
2022/07/03 04:11:33;;;;;;;4.45;2.20;;;;;;;;;;10319182;28;20154;-55
2022/07/03 04:16:34;;;;;;;3.28;2.22;;;;;;;;;;10322035;28;20030;-55
2022/07/03 04:21:34;;;;;;;3.45;2.10;;;;;;;;;;10318004;28;20174;-55
2022/07/03 04:26:35;;;;;;;5.55;2.03;;;;;;;;;;10317501;28;20284;-54
2022/07/03 04:31:36;;;;;;;2.78;2.15;;;;;;;;;;10310626;28;20027;-54
2022/07/03 04:36:36;;;;;;;3.28;2.28;;;;;;;;;;10317958;28;20046;-54
2022/07/03 04:41:37;;;;;;;3.15;2.17;;;;;;;;;;10309006;28;20146;-54
2022/07/03 04:46:38;;;;;;;3.35;1.88;;;;;;;;;;10316866;28;20117;-55
2022/07/03 04:51:39;;;;;;;4.28;1.70;;;;;;;;;;10320509;28;20049;-54
2022/07/03 04:56:40;;;;;;;3.17;1.95;;;;;;;;;;10319126;28;20035;-55
2022/07/03 05:01:40;;;;;;;3.90;2.10;;;;;;;;;;10291101;28;20109;-55
2022/07/03 05:06:41;;;;;;;2.78;1.90;;;;;;;;;;10297420;28;20026;-54
2022/07/03 05:11:41;;;;;;;3.70;1.92;;;;;;;;;;10326591;28;20026;-54
2022/07/03 05:16:42;;;;;;;2.40;1.70;;;;;;;;;;10310769;28;20023;-55
2022/07/03 05:21:43;;;;;;;2.85;1.80;;;;;;;;;;10316708;28;20042;-55
2022/07/03 05:26:43;;;;;;;2.78;2.00;;;;;;;;;;10359868;23;20536;-49
2022/07/03 05:31:44;;;;;;;2.50;1.83;;;;;;;;;;10353471;28;20378;-49
2022/07/03 05:36:45;;;;;;;4.07;1.77;;;;;;;;;;10322160;28;20141;-46
2022/07/03 05:41:46;;;;;;;2.97;1.88;;;;;;;;;;10321332;28;20479;-48
2022/07/03 05:46:47;;;;;;;3.53;1.77;;;;;;;;;;10321070;28;20501;-47
2022/07/03 05:51:47;;;;;;;2.90;2.10;;;;;;;;;;10325121;28;20355;-46
2022/07/03 05:56:48;;;;;;;2.83;2.00;;;;;;;;;;10323526;28;20030;-47
2022/07/03 06:01:48;;;;;;;3.42;1.90;;;;;;;;;;10324342;28;20030;-46
2022/07/03 06:06:49;;;;;;;3.47;2.05;;;;;;;;;;10326708;28;20032;-46
2022/07/03 06:11:50;;;;;;;5.32;2.20;;;;;;;;;;10324657;28;20273;-47
2022/07/03 06:16:50;;;;;;;3.33;1.80;;;;;;;;;;10320692;28;20035;-46
2022/07/03 06:21:51;;;;;;;4.13;1.83;;;;;;;;;;10324162;28;20145;-46
2022/07/03 06:26:51;;;;;;;3.28;1.88;;;;;;;;;;10310651;28;20502;-47
2022/07/03 06:31:52;;;;;;;2.40;1.80;;;;;;;;;;10314774;28;20436;-47
2022/07/03 06:36:53;;;;;;;2.53;2.03;;;;;;;;;;10322100;28;20042;-46
2022/07/03 06:41:53;;;;;;;2.80;1.73;;;;;;;;;;10326093;28;20022;-46
2022/07/03 06:46:54;;;;;;;2.78;1.90;;;;;;;;;;10325670;28;20030;-47
2022/07/03 06:51:55;;;;;;;3.13;2.15;;;;;;;;;;10324719;28;20036;-46
2022/07/03 06:56:55;;;;;;;1.75;1.50;;;;;;;;;;10314460;28;20038;-47
2022/07/03 07:01:56;;;;;;;2.95;1.67;;;;;;;;;;10319516;28;20061;-47
2022/07/03 07:06:57;;;;;;;3.13;1.58;;;;;;;;;;10333493;28;20048;-47
2022/07/03 07:11:57;;;;;;;2.40;1.98;;;;;;;;;;10333325;28;20382;-46
2022/07/03 07:16:58;;;;;;;1.98;1.58;;;;;;;;;;10328386;28;20038;-47
2022/07/03 07:22:00;;;;;;;2.67;1.80;;;;;;;;;;10326275;28;20110;-47
2022/07/03 07:27:01;;;;;;;2.88;1.85;;;;;;;;;;10324915;28;20042;-48
2022/07/03 07:32:02;;;;;;;1.65;1.50;;;;;;;;;;10327519;28;20042;-46
2022/07/03 07:37:03;;;;;;;2.15;1.83;;;;;;;;;;10332173;28;20030;-46
2022/07/03 07:42:04;;;;;;;3.92;1.45;;;;;;;;;;10321571;28;20035;-48
2022/07/03 07:47:05;;;;;;;1.95;1.42;;;;;;;;;;10318024;28;20089;-47
2022/07/03 07:52:06;;;;;;;3.65;1.70;;;;;;;;;;10316522;28;20030;-46
2022/07/03 07:57:06;;;;;;;3.60;2.15;;;;;;;;;;10331843;28;20038;-46
2022/07/03 08:07:26;;;;;;;5.35;1.88;;;;;;;;;;10318398;28;20046;-48
2022/07/03 08:12:26;;;;;;;4.05;1.98;;;;;;;;;;10330685;28;20026;-48
2022/07/03 08:17:27;;;;;;;3.03;1.90;;;;;;;;;;10329572;28;20069;-47
2022/07/03 08:22:28;;;;;;;2.53;2.03;;;;;;;;;;10327123;28;20121;-46
2022/07/03 08:27:28;;;;;;;3.63;2.28;;;;;;;;;;10327661;28;20078;-48
2022/07/03 08:32:29;;;;;;;4.88;2.20;;;;;;;;;;10312410;28;20375;-50
2022/07/03 08:37:30;;;;;;;2.95;1.85;;;;;;;;;;10326900;28;20426;-46
2022/07/03 08:42:34;;;;;;;7.30;1.90;;;;;;;;;;10329771;28;20152;-47
2022/07/03 08:47:37;;;;;;;4.60;2.17;;;;;;;;;;10308795;28;20405;-46
2022/07/03 08:52:37;;;;;;;6.43;2.17;;;;;;;;;;10328362;28;20024;-49
2022/07/03 08:57:40;;;;;;;5.13;2.30;;;;;;;;;;10326988;28;20023;-46
2022/07/03 09:02:45;;;;;;;4.50;1.80;;;;;;;;;;10327918;28;20026;-47
2022/07/03 09:07:47;;;;;;;6.90;2.05;;;;;;;;;;10325964;28;20070;-46
2022/07/03 09:12:48;;;;;;;4.05;2.08;;;;;;;;;;10325349;28;20538;-45
2022/07/03 09:18:07;;;;;;;10.85;2.58;;;;;;;;;;10327082;28;20488;-47
2022/07/03 09:23:13;;;;;;;3.30;1.55;;;;;;;;;;10317745;28;20533;-45
2022/07/03 09:28:13;;;;;;;5.20;1.83;;;;;;;;;;10328527;28;20038;-45
2022/07/03 09:33:19;;;;;;;5.50;1.90;;;;;;;;;;10306515;28;20038;-45
2022/07/03 09:38:20;;;;;;;3.15;1.60;;;;;;;;;;10302516;28;20446;-45
2022/07/03 09:43:31;;;;;;;4.47;1.98;;;;;;;;;;10316493;28;20374;-47
2022/07/03 09:48:41;;;;;;;4.82;2.13;;;;;;;;;;10326747;28;20080;-45
2022/07/03 09:53:59;;;;;;;6.05;2.25;;;;;;;;;;10325438;28;20034;-45
2022/07/03 09:59:13;;;;;;;4.50;1.83;;;;;;;;;;10309104;28;20324;-52
2022/07/03 10:04:18;;;;;;;6.05;2.20;;;;;;;;;;10326932;28;20054;-45
2022/07/03 10:09:24;;;;;;;3.05;1.92;;;;;;;;;;10327044;28;20386;-45
2022/07/03 10:14:30;;;;;;;3.80;2.40;;;;;;;;;;10319928;28;20018;-45
2022/07/03 10:19:39;;;;;;;4.43;2.27;;;;;;;;;;10304144;28;20044;-45
2022/07/03 10:24:42;;;;;;;6.18;2.13;;;;;;;;;;10303217;28;20497;-45
2022/07/03 10:29:43;;;;;;;5.50;2.00;;;;;;;;;;10320903;28;20080;-45
2022/07/03 10:34:44;;;;;;;8.27;2.40;;;;;;;;;;10313699;28;20426;-45
2022/07/03 10:44:45;;;;;;;5.45;2.00;;;;;;;;;;10318793;28;20045;-45
2022/07/03 10:45:22;;;;;;;5.57;2.20;;;;;;;;;;10316079;28;20466;-49
2022/07/03 10:50:24;;;;;;;3.70;2.22;;;;;;;;;;10323679;28;20029;-49
2022/07/03 10:55:24;;;;;;;2.53;1.90;;;;;;;;;;10324138;28;20049;-49
2022/07/03 11:00:25;;;;;;;4.03;2.35;;;;;;;;;;10319523;28;20033;-49
2022/07/03 11:05:36;;;;;;;5.25;2.42;;;;;;;;;;10320314;28;20030;-49
2022/07/03 11:10:40;;;;;;;6.40;2.40;;;;;;;;;;10317695;28;20122;-49
2022/07/03 11:15:54;;;;;;;3.70;2.35;;;;;;;;;;10321975;28;20034;-49
2022/07/03 11:21:06;;;;;;;3.85;2.45;;;;;;;;;;10323341;28;20042;-48
2022/07/03 11:26:09;;;;;;;5.40;2.20;;;;;;;;;;10321026;28;20055;-48
2022/07/03 11:31:10;;;;;;;6.88;2.30;;;;;;;;;;10314608;28;20031;-48
2022/07/03 11:36:17;;;;;;;3.55;1.70;;;;;;;;;;10325074;28;20045;-49
2022/07/03 11:41:17;;;;;;;4.18;2.20;;;;;;;;;;10317351;28;20286;-49
2022/07/03 11:46:23;;;;;;;2.35;1.70;;;;;;;;;;10328318;28;20277;-48
2022/07/03 11:51:24;;;;;;;3.17;1.98;;;;;;;;;;10330129;28;20161;-47
2022/07/03 11:56:25;;;;;;;3.08;2.03;;;;;;;;;;10329554;28;20023;-46
2022/07/03 12:01:26;;;;;;;4.07;2.10;;;;;;;;;;10341796;28;20031;-46
2022/07/03 12:06:26;;;;;;;4.47;1.70;;;;;;;;;;10331060;28;20402;-45
2022/07/03 12:11:27;;;;;;;4.00;1.73;;;;;;;;;;10314498;28;20779;-46
2022/07/03 12:16:34;;;;;;;4.80;2.00;;;;;;;;;;10313910;28;20030;-47
2022/07/03 12:21:37;;;;;;;5.40;1.80;;;;;;;;;;10316301;28;20149;-47
2022/07/03 12:26:38;;;;;;;6.25;2.03;;;;;;;;;;10316948;28;20564;-46
2022/07/03 12:31:45;;;;;;;3.88;1.77;;;;;;;;;;10324505;28;20073;-46
2022/07/03 12:36:58;;;;;;;5.17;1.73;;;;;;;;;;10322705;28;20057;-45
2022/07/03 12:41:59;;;;;;;3.97;2.00;;;;;;;;;;10328467;28;20041;-46
2022/07/03 12:46:59;;;;;;;3.83;1.75;;;;;;;;;;10343183;28;20049;-49
2022/07/03 12:52:01;;;;;;;5.15;2.03;;;;;;;;;;10343316;28;20030;-47
2022/07/03 13:02:28;;;;;;;4.75;1.63;;;;;;;;;;10317209;28;20039;-46
2022/07/03 13:07:32;;;;;;;4.45;1.70;;;;;;;;;;10327460;28;20109;-47
2022/07/03 13:12:33;;;;;;;3.65;1.90;;;;;;;;;;10328043;28;20356;-47
2022/07/03 13:17:55;;;;;;;5.40;1.95;;;;;;;;;;10328437;28;20030;-46
2022/07/03 13:23:04;;;;;;;3.75;1.65;;;;;;;;;;10316980;28;20390;-47
2022/07/03 13:28:13;;;;;;;4.68;1.60;;;;;;;;;;10328298;28;20038;-48
2022/07/03 13:33:13;;;;;;;2.97;1.83;;;;;;;;;;10317466;28;20445;-46
2022/07/03 13:38:14;;;;;;;2.60;1.60;;;;;;;;;;10327749;28;20030;-46
2022/07/03 13:43:14;;;;;;;3.65;1.67;;;;;;;;;;10328429;28;20030;-47
2022/07/03 13:48:15;;;;;;;4.95;1.65;;;;;;;;;;10324801;28;20022;-46
2022/07/03 13:53:15;;;;;;;2.33;1.38;;;;;;;;;;10327131;28;20041;-47
2022/07/03 13:58:16;;;;;;;2.55;1.40;;;;;;;;;;10326691;28;20034;-47
2022/07/03 14:03:17;;;;;;;4.00;1.60;;;;;;;;;;10341679;28;20026;-46
2022/07/03 14:08:19;;;;;;;3.55;1.83;;;;;;;;;;10323905;28;20022;-46
2022/07/03 14:13:20;;;;;;;2.88;1.50;;;;;;;;;;10324218;28;20023;-46
2022/07/03 14:18:20;;;;;;;1.67;1.50;;;;;;;;;;10323974;28;20374;-47
2022/07/03 14:23:21;;;;;;;1.45;1.35;;;;;;;;;;10323488;28;20073;-46
2022/07/03 14:33:41;;;;;;;2.60;1.77;;;;;;;;;;10326003;28;20034;-46
2022/07/03 14:38:42;;;;;;;2.05;1.70;;;;;;;;;;10323472;28;20030;-46
2022/07/03 14:43:43;;;;;;;3.53;1.70;;;;;;;;;;10316850;28;20026;-46
2022/07/03 14:48:43;;;;;;;2.72;1.55;;;;;;;;;;10325662;28;20026;-46
2022/07/03 14:53:44;;;;;;;1.52;1.42;;;;;;;;;;10325264;28;20026;-46
2022/07/03 14:58:46;;;;;;;1.70;1.25;;;;;;;;;;10339993;28;20412;-46
2022/07/03 15:03:59;;;;;;;2.05;1.73;;;;;;;;;;10323867;28;20481;-45
2022/07/03 15:09:05;;;;;;;2.33;1.60;;;;;;;;;;10324810;28;20466;-47
2022/07/03 15:14:07;;;;;;;2.80;1.50;;;;;;;;;;10330983;28;20108;-48
2022/07/03 15:19:09;;;;;;;3.20;1.85;;;;;;;;;;10330970;28;20169;-45
2022/07/03 15:24:11;;;;;;;2.50;1.70;;;;;;;;;;10333201;28;20055;-45
2022/07/03 15:29:12;;;;;;;4.03;1.55;;;;;;;;;;10331146;28;20030;-47
2022/07/03 15:34:14;;;;;;;4.00;1.50;;;;;;;;;;10332231;28;20025;-45
2022/07/03 15:39:33;;;;;;;1.88;1.40;;;;;;;;;;10332716;28;20077;-46
2022/07/03 15:44:56;;;;;;;1.83;1.17;;;;;;;;;;10331571;28;20018;-47
2022/07/03 15:49:59;;;;;;;2.50;1.40;;;;;;;;;;10312820;28;20332;-46
2022/07/03 15:55:02;;;;;;;2.65;1.40;;;;;;;;;;10327421;28;20486;-47
2022/07/03 16:00:10;;;;;;;1.48;1.38;;;;;;;;;;10321202;28;20041;-46
2022/07/03 16:05:18;;;;;;;1.77;1.58;;;;;;;;;;10331150;28;20038;-46
2022/07/03 16:10:20;;;;;;;1.63;1.50;;;;;;;;;;10320601;28;20031;-46
2022/07/03 16:15:22;;;;;;;1.42;1.33;;;;;;;;;;10320079;28;20029;-46
2022/07/03 16:20:28;;;;;;;2.17;1.45;;;;;;;;;;10324423;28;20031;-46
2022/07/03 16:25:34;;;;;;;1.35;1.30;;;;;;;;;;10302873;28;20241;-46
2022/07/03 16:30:44;;;;;;;1.40;1.30;;;;;;;;;;10316226;28;20057;-46
2022/07/03 16:35:55;;;;;;;1.88;1.60;;;;;;;;;;10310088;28;20031;-45
2022/07/03 16:41:02;;;;;;;1.23;1.13;;;;;;;;;;10320125;28;20035;-45
2022/07/03 16:46:04;;;;;;;2.22;1.40;;;;;;;;;;10326340;28;20061;-45
2022/07/03 16:51:07;;;;;;;1.45;1.25;;;;;;;;;;10327301;28;20493;-46
2022/07/03 16:56:11;;;;;;;1.73;1.45;;;;;;;;;;10329754;28;20300;-46
2022/07/03 17:01:12;;;;;;;1.52;1.38;;;;;;;;;;10328976;28;20526;-45
2022/07/03 17:06:13;;;;;;;1.52;1.42;;;;;;;;;;10329535;28;20022;-46
2022/07/03 17:11:13;;;;;;;1.23;1.13;;;;;;;;;;10327091;28;20029;-46
2022/07/03 17:16:16;;;;;;;1.60;1.50;;;;;;;;;;10326613;28;20034;-48
2022/07/03 17:21:25;;;;;;;1.65;1.25;;;;;;;;;;10317270;28;20038;-46
2022/07/03 17:26:32;;;;;;;1.77;1.40;;;;;;;;;;10328072;28;20057;-46
2022/07/03 17:31:44;;;;;;;1.38;1.27;;;;;;;;;;10302288;28;20121;-46
2022/07/03 17:36:48;;;;;;;1.33;1.20;;;;;;;;;;10324841;28;20026;-46
2022/07/03 17:41:49;;;;;;;1.80;1.50;;;;;;;;;;10303464;28;20031;-45
2022/07/03 17:46:52;;;;;;;2.15;1.40;;;;;;;;;;10327285;28;20030;-46
2022/07/03 17:51:54;;;;;;;1.38;1.27;;;;;;;;;;10326767;28;20081;-46
2022/07/03 17:57:34;;;;;;;1.65;1.42;;;;;;;;;;10323589;28;20120;-46
2022/07/03 18:02:16;;;;;;;1.88;1.33;;;;;;;;;;10326707;28;20054;-46
2022/07/03 18:07:18;;;;;;;2.15;1.38;;;;;;;;;;10325513;28;20026;-46
2022/07/03 18:12:25;;;;;;;1.58;1.40;;;;;;;;;;10309456;28;20113;-46
2022/07/03 18:17:32;;;;;;;1.40;1.25;;;;;;;;;;10325267;28;20022;-47
2022/07/03 18:22:33;;;;;;;1.50;1.38;;;;;;;;;;10325011;28;20038;-46
2022/07/03 18:27:34;;;;;;;1.70;1.40;;;;;;;;;;10324882;28;20459;-46
2022/07/03 18:32:37;;;;;;;1.33;1.23;;;;;;;;;;10326012;28;20026;-46
2022/07/03 18:37:40;;;;;;;1.52;1.42;;;;;;;;;;10305093;28;20061;-46
2022/07/03 18:42:42;;;;;;;0.95;0.93;;;;;;;;;;10325854;28;20520;-46
2022/07/03 18:47:43;;;;;;;1.35;1.10;;;;;;;;;;10322017;28;20018;-46
2022/07/03 18:53:12;;;;;;;1.30;1.20;;;;;;;;;;10324223;28;20378;-46
2022/07/03 18:58:38;;;;;;;2.08;1.10;;;;;;;;;;10324075;28;20034;-46
2022/07/03 19:03:47;;;;;;;1.83;1.25;;;;;;;;;;10323335;28;20473;-47
2022/07/03 19:09:04;;;;;;;2.22;1.30;;;;;;;;;;10324691;28;20374;-46
2022/07/03 19:14:12;;;;;;;1.47;1.17;;;;;;;;;;10325601;28;20258;-46
2022/07/03 19:19:14;;;;;;;;;;;;;;;;;;10324963;28;20121;-45
2022/07/03 19:24:14;;;;;;;1.95;1.25;;;;;;;;;;10324185;28;19917;-45
2022/07/03 19:29:16;;;;;;;2.10;1.20;;;;;;;;;;10322290;28;20038;-47
2022/07/03 19:34:16;;;;;;;2.05;1.00;;;;;;;;;;10309490;28;20408;-45
2022/07/03 19:39:17;;;;;;;2.28;1.17;;;;;;;;;;10318221;28;20034;-46
2022/07/03 19:44:17;;;;;;;1.80;1.35;;;;;;;;;;10320827;28;20041;-46
2022/07/03 19:49:18;;;;;;;3.83;1.30;;;;;;;;;;10303491;28;20030;-46
2022/07/03 19:54:19;;;;;;;1.67;1.20;;;;;;;;;;10323032;28;20114;-46
2022/07/03 19:59:19;;;;;;;2.95;1.10;;;;;;;;;;10328461;28;20050;-46
2022/07/03 20:04:20;;;;;;;3.88;1.27;;;;;;;;;;10329799;28;20106;-46
2022/07/03 20:09:24;;;;;;;3.88;1.60;;;;;;;;;;10306414;28;20022;-47
2022/07/03 20:14:27;;;;;;;2.50;1.70;;;;;;;;;;10325126;28;20030;-45
2022/07/03 20:19:27;;;;;;;1.88;1.13;;;;;;;;;;10316271;28;20478;-45
2022/07/03 20:24:31;;;;;;;2.05;1.58;;;;;;;;;;10294817;28;20034;-45
2022/07/03 20:29:37;;;;;;;6.95;1.45;;;;;;;;;;10318359;28;20442;-45
2022/07/03 20:34:39;;;;;;;4.45;1.48;;;;;;;;;;10330157;28;20358;-46
2022/07/03 20:39:42;;;;;;;13.55;1.83;;;;;;;;;;10319505;28;20069;-45
2022/07/03 20:44:43;;;;;;;7.45;1.95;;;;;;;;;;10328231;28;20026;-47
2022/07/03 20:49:43;;;;;;;1.98;1.42;;;;;;;;;;10320939;28;20522;-46
2022/07/03 20:54:44;;;;;;;4.07;1.98;;;;;;;;;;10320369;28;20382;-45
2022/07/03 20:59:46;;;;;;;3.03;1.60;;;;;;;;;;10318925;28;20045;-45
2022/07/03 21:04:47;;;;;;;2.72;1.50;;;;;;;;;;10316456;28;20046;-45
2022/07/03 21:09:48;;;;;;;5.85;1.55;;;;;;;;;;10320984;28;20193;-45
2022/07/03 21:14:48;;;;;;;6.25;1.85;;;;;;;;;;10317956;28;20571;-45
2022/07/03 21:19:49;;;;;;;7.78;1.73;;;;;;;;;;10317631;28;20414;-48
2022/07/03 21:24:50;;;;;;;3.17;1.75;;;;;;;;;;10311577;28;20045;-49
2022/07/03 21:29:50;;;;;;;4.15;1.58;;;;;;;;;;10313306;28;20036;-48
2022/07/03 21:34:51;;;;;;;2.58;1.40;;;;;;;;;;10316637;28;20026;-46
2022/07/03 21:39:52;;;;;;;2.90;1.45;;;;;;;;;;10319314;28;20086;-45
2022/07/03 21:44:53;;;;;;;2.60;1.65;;;;;;;;;;10314986;28;20262;-45
2022/07/03 21:49:53;;;;;;;14.60;1.85;;;;;;;;;;10310089;28;20498;-46
2022/07/03 21:54:54;;;;;;;12.52;1.85;;;;;;;;;;10319251;28;20027;-47
2022/07/03 21:59:55;;;;;;;7.82;1.98;;;;;;;;;;10315507;28;20037;-49
2022/07/03 22:04:55;;;;;;;7.45;1.70;;;;;;;;;;10323126;28;20117;-47
2022/07/03 22:09:56;;;;;;;12.30;1.60;;;;;;;;;;10318467;28;20032;-48
2022/07/03 22:14:59;;;;;;;13.52;2.10;;;;;;;;;;10320423;28;20436;-48
2022/07/03 22:20:01;;;;;;;4.50;1.40;;;;;;;;;;10316016;28;20371;-47
2022/07/03 22:25:03;;;;;;;15.45;1.70;;;;;;;;;;10315946;28;20034;-46
2022/07/03 22:30:09;;;;;;;11.30;2.00;;;;;;;;;;10300555;28;20038;-46
2022/07/03 22:35:12;;;;;;;14.43;2.20;;;;;;;;;;10329647;28;20501;-47
2022/07/03 22:40:14;;;;;;;15.27;2.08;;;;;;;;;;10320399;28;20045;-47
2022/07/03 22:45:15;;;;;;;22.77;2.65;;;;;;;;;;10293884;28;20393;-46
2022/07/03 22:50:16;;;;;;;21.20;2.42;;;;;;;;;;10295587;28;20037;-47
2022/07/03 22:55:17;;;;;;;7.68;2.00;;;;;;;;;;10292407;28;20462;-46
2022/07/03 23:00:17;;;;;;;8.98;1.90;;;;;;;;;;10297129;28;20144;-46
2022/07/03 23:05:18;;;;;;;15.18;1.98;;;;;;;;;;10293701;28;20041;-45
2022/07/03 23:10:19;;;;;;;11.90;2.75;;;;;;;;;;10297267;28;20106;-47
2022/07/03 23:15:19;;;;;;;10.93;1.77;;;;;;;;;;10307941;28;20034;-46
2022/07/03 23:20:20;;;;;;;4.50;1.55;;;;;;;;;;10305026;28;20432;-48
2022/07/03 23:25:20;;;;;;;8.52;2.05;;;;;;;;;;10316066;28;20038;-47
2022/07/03 23:30:21;;;;;;;10.15;2.05;;;;;;;;;;10317858;28;20038;-48
2022/07/03 23:35:22;;;;;;;6.85;2.20;;;;;;;;;;10317548;28;20108;-47
2022/07/03 23:40:22;;;;;;;6.57;1.90;;;;;;;;;;10331833;28;20042;-47
2022/07/03 23:45:24;;;;;;;8.13;1.88;;;;;;;;;;10311619;28;20034;-47
2022/07/03 23:50:36;;;;;;;17.17;2.25;;;;;;;;;;10315501;28;20176;-46
2022/07/03 23:55:37;;;;;;;6.55;1.90;;;;;;;;;;10329012;28;20030;-46
